sensor_id;sensor_type;location;lat;lon;timestamp;P1;durP1;ratioP1;P2;durP2;ratioP2
62610;SDS011;48683;48.084;17.272;2023-04-02T00:01:23;1.02;;;0.70;;
62610;SDS011;48683;48.084;17.272;2023-04-02T00:08:57;0.90;;;0.90;;
62610;SDS011;48683;48.084;17.272;2023-04-02T00:11:33;0.88;;;0.80;;
62610;SDS011;48683;48.084;17.272;2023-04-02T00:14:01;0.80;;;0.80;;
62610;SDS011;48683;48.084;17.272;2023-04-02T00:18:55;0.80;;;0.80;;
62610;SDS011;48683;48.084;17.272;2023-04-02T00:21:28;0.70;;;0.70;;
62610;SDS011;48683;48.084;17.272;2023-04-02T00:23:58;0.80;;;0.80;;
62610;SDS011;48683;48.084;17.272;2023-04-02T00:26:42;0.80;;;0.77;;
62610;SDS011;48683;48.084;17.272;2023-04-02T00:29:09;0.88;;;0.88;;
62610;SDS011;48683;48.084;17.272;2023-04-02T00:31:46;1.63;;;0.88;;
62610;SDS011;48683;48.084;17.272;2023-04-02T00:34:19;0.77;;;0.77;;
62610;SDS011;48683;48.084;17.272;2023-04-02T00:36:47;0.77;;;0.73;;
62610;SDS011;48683;48.084;17.272;2023-04-02T00:39:18;1.92;;;0.80;;
62610;SDS011;48683;48.084;17.272;2023-04-02T00:41:48;0.80;;;0.80;;
62610;SDS011;48683;48.084;17.272;2023-04-02T00:44:22;0.70;;;0.70;;
62610;SDS011;48683;48.084;17.272;2023-04-02T00:46:48;1.95;;;0.80;;
62610;SDS011;48683;48.084;17.272;2023-04-02T00:49:19;0.60;;;0.60;;
62610;SDS011;48683;48.084;17.272;2023-04-02T00:51:59;1.55;;;0.80;;
62610;SDS011;48683;48.084;17.272;2023-04-02T00:54:28;0.80;;;0.80;;
62610;SDS011;48683;48.084;17.272;2023-04-02T00:56:56;1.27;;;0.80;;
62610;SDS011;48683;48.084;17.272;2023-04-02T00:59:32;1.35;;;0.70;;
62610;SDS011;48683;48.084;17.272;2023-04-02T01:04:41;0.80;;;0.80;;
62610;SDS011;48683;48.084;17.272;2023-04-02T01:07:07;0.80;;;0.80;;
62610;SDS011;48683;48.084;17.272;2023-04-02T01:17:59;0.70;;;0.70;;
62610;SDS011;48683;48.084;17.272;2023-04-02T01:31:00;0.75;;;0.73;;
62610;SDS011;48683;48.084;17.272;2023-04-02T01:33:32;0.68;;;0.68;;
62610;SDS011;48683;48.084;17.272;2023-04-02T01:36:04;0.70;;;0.70;;
62610;SDS011;48683;48.084;17.272;2023-04-02T01:38:37;1.83;;;1.00;;
62610;SDS011;48683;48.084;17.272;2023-04-02T01:41:18;1.45;;;0.70;;
62610;SDS011;48683;48.084;17.272;2023-04-02T01:44:02;1.23;;;0.90;;
62610;SDS011;48683;48.084;17.272;2023-04-02T01:46:33;1.27;;;0.88;;
62610;SDS011;48683;48.084;17.272;2023-04-02T01:49:00;0.98;;;0.98;;
62610;SDS011;48683;48.084;17.272;2023-04-02T01:51:34;1.13;;;0.95;;
62610;SDS011;48683;48.084;17.272;2023-04-02T01:54:04;0.80;;;0.80;;
62610;SDS011;48683;48.084;17.272;2023-04-02T01:56:30;0.90;;;0.90;;
62610;SDS011;48683;48.084;17.272;2023-04-02T01:58:59;0.80;;;0.80;;
62610;SDS011;48683;48.084;17.272;2023-04-02T02:01:27;1.05;;;0.85;;
62610;SDS011;48683;48.084;17.272;2023-04-02T02:04:00;1.20;;;0.80;;
62610;SDS011;48683;48.084;17.272;2023-04-02T02:06:26;0.80;;;0.80;;
62610;SDS011;48683;48.084;17.272;2023-04-02T02:08:52;0.90;;;0.90;;
62610;SDS011;48683;48.084;17.272;2023-04-02T02:11:21;0.95;;;0.88;;
62610;SDS011;48683;48.084;17.272;2023-04-02T02:13:54;1.08;;;0.85;;
62610;SDS011;48683;48.084;17.272;2023-04-02T02:16:21;0.95;;;0.95;;
62610;SDS011;48683;48.084;17.272;2023-04-02T02:18:51;0.95;;;0.80;;
62610;SDS011;48683;48.084;17.272;2023-04-02T02:23:59;1.02;;;1.02;;
62610;SDS011;48683;48.084;17.272;2023-04-02T02:26:25;1.10;;;0.98;;
62610;SDS011;48683;48.084;17.272;2023-04-02T02:28:53;0.93;;;0.90;;
62610;SDS011;48683;48.084;17.272;2023-04-02T02:31:22;1.73;;;0.90;;
62610;SDS011;48683;48.084;17.272;2023-04-02T02:33:55;1.73;;;0.90;;
62610;SDS011;48683;48.084;17.272;2023-04-02T02:44:14;1.35;;;0.80;;
62610;SDS011;48683;48.084;17.272;2023-04-02T02:46:55;1.25;;;0.70;;
62610;SDS011;48683;48.084;17.272;2023-04-02T02:49:35;1.63;;;0.80;;
62610;SDS011;48683;48.084;17.272;2023-04-02T02:54:35;0.70;;;0.70;;
62610;SDS011;48683;48.084;17.272;2023-04-02T02:57:05;0.77;;;0.77;;
62610;SDS011;48683;48.084;17.272;2023-04-02T02:59:34;0.80;;;0.80;;
62610;SDS011;48683;48.084;17.272;2023-04-02T03:02:00;1.20;;;0.80;;
62610;SDS011;48683;48.084;17.272;2023-04-02T03:04:26;0.65;;;0.60;;
62610;SDS011;48683;48.084;17.272;2023-04-02T03:06:54;2.08;;;0.80;;
62610;SDS011;48683;48.084;17.272;2023-04-02T03:12:26;0.73;;;0.73;;
62610;SDS011;48683;48.084;17.272;2023-04-02T03:15:19;0.80;;;0.80;;
62610;SDS011;48683;48.084;17.272;2023-04-02T03:17:52;0.63;;;0.60;;
62610;SDS011;48683;48.084;17.272;2023-04-02T03:23:05;0.70;;;0.70;;
62610;SDS011;48683;48.084;17.272;2023-04-02T03:25:41;0.68;;;0.68;;
62610;SDS011;48683;48.084;17.272;2023-04-02T03:28:14;1.55;;;0.80;;
62610;SDS011;48683;48.084;17.272;2023-04-02T03:30:49;0.60;;;0.60;;
62610;SDS011;48683;48.084;17.272;2023-04-02T03:33:32;1.58;;;0.82;;
62610;SDS011;48683;48.084;17.272;2023-04-02T03:41:49;0.85;;;0.80;;
62610;SDS011;48683;48.084;17.272;2023-04-02T03:46:57;1.98;;;0.85;;
62610;SDS011;48683;48.084;17.272;2023-04-02T03:49:33;1.58;;;0.88;;
62610;SDS011;48683;48.084;17.272;2023-04-02T03:52:12;0.90;;;0.90;;
62610;SDS011;48683;48.084;17.272;2023-04-02T03:54:40;1.00;;;1.00;;
62610;SDS011;48683;48.084;17.272;2023-04-02T03:57:10;1.13;;;1.02;;
62610;SDS011;48683;48.084;17.272;2023-04-02T04:00:09;1.13;;;1.02;;
62610;SDS011;48683;48.084;17.272;2023-04-02T04:02:50;1.98;;;0.93;;
62610;SDS011;48683;48.084;17.272;2023-04-02T04:08:17;1.10;;;1.00;;
62610;SDS011;48683;48.084;17.272;2023-04-02T04:10:49;1.20;;;1.10;;
62610;SDS011;48683;48.084;17.272;2023-04-02T04:13:17;1.30;;;1.20;;
62610;SDS011;48683;48.084;17.272;2023-04-02T04:15:54;2.38;;;1.40;;
62610;SDS011;48683;48.084;17.272;2023-04-02T04:20:57;1.08;;;1.02;;
62610;SDS011;48683;48.084;17.272;2023-04-02T04:31:47;1.30;;;1.20;;
62610;SDS011;48683;48.084;17.272;2023-04-02T04:37:06;0.90;;;0.90;;
62610;SDS011;48683;48.084;17.272;2023-04-02T04:40:08;1.73;;;1.45;;
62610;SDS011;48683;48.084;17.272;2023-04-02T04:42:35;1.42;;;1.33;;
62610;SDS011;48683;48.084;17.272;2023-04-02T04:45:24;1.20;;;1.10;;
62610;SDS011;48683;48.084;17.272;2023-04-02T04:48:03;1.30;;;1.20;;
62610;SDS011;48683;48.084;17.272;2023-04-02T04:53:20;1.60;;;1.50;;
62610;SDS011;48683;48.084;17.272;2023-04-02T04:55:47;1.50;;;1.40;;
62610;SDS011;48683;48.084;17.272;2023-04-02T04:58:23;1.50;;;1.40;;
62610;SDS011;48683;48.084;17.272;2023-04-02T05:03:27;2.15;;;1.35;;
62610;SDS011;48683;48.084;17.272;2023-04-02T05:06:07;1.60;;;1.50;;
62610;SDS011;48683;48.084;17.272;2023-04-02T05:08:37;1.35;;;1.20;;
62610;SDS011;48683;48.084;17.272;2023-04-02T05:11:10;2.00;;;1.40;;
62610;SDS011;48683;48.084;17.272;2023-04-02T05:16:47;2.40;;;1.38;;
62610;SDS011;48683;48.084;17.272;2023-04-02T05:19:29;1.38;;;1.27;;
62610;SDS011;48683;48.084;17.272;2023-04-02T05:24:43;1.73;;;1.23;;
62610;SDS011;48683;48.084;17.272;2023-04-02T05:29:49;1.75;;;1.10;;
62610;SDS011;48683;48.084;17.272;2023-04-02T05:32:23;1.20;;;1.10;;
62610;SDS011;48683;48.084;17.272;2023-04-02T05:34:54;2.08;;;1.27;;
62610;SDS011;48683;48.084;17.272;2023-04-02T05:37:22;2.40;;;1.35;;
62610;SDS011;48683;48.084;17.272;2023-04-02T05:39:57;1.38;;;1.27;;
62610;SDS011;48683;48.084;17.272;2023-04-02T05:42:30;1.45;;;1.30;;
62610;SDS011;48683;48.084;17.272;2023-04-02T05:45:03;2.25;;;1.15;;
62610;SDS011;48683;48.084;17.272;2023-04-02T05:47:31;1.30;;;1.20;;
62610;SDS011;48683;48.084;17.272;2023-04-02T05:52:33;1.30;;;1.23;;
62610;SDS011;48683;48.084;17.272;2023-04-02T05:57:57;1.00;;;1.00;;
62610;SDS011;48683;48.084;17.272;2023-04-02T06:01:03;1.40;;;1.30;;
62610;SDS011;48683;48.084;17.272;2023-04-02T06:03:30;1.38;;;0.93;;
62610;SDS011;48683;48.084;17.272;2023-04-02T06:06:06;1.23;;;1.10;;
62610;SDS011;48683;48.084;17.272;2023-04-02T06:09:04;1.00;;;1.00;;
62610;SDS011;48683;48.084;17.272;2023-04-02T06:11:37;0.95;;;0.95;;
62610;SDS011;48683;48.084;17.272;2023-04-02T06:14:08;1.35;;;1.25;;
62610;SDS011;48683;48.084;17.272;2023-04-02T06:16:36;1.08;;;1.05;;
62610;SDS011;48683;48.084;17.272;2023-04-02T06:19:03;1.50;;;1.15;;
62610;SDS011;48683;48.084;17.272;2023-04-02T06:21:41;1.38;;;1.10;;
62610;SDS011;48683;48.084;17.272;2023-04-02T06:24:08;1.23;;;1.13;;
62610;SDS011;48683;48.084;17.272;2023-04-02T06:26:38;1.38;;;1.08;;
62610;SDS011;48683;48.084;17.272;2023-04-02T06:34:15;1.73;;;0.98;;
62610;SDS011;48683;48.084;17.272;2023-04-02T06:36:43;0.95;;;0.90;;
62610;SDS011;48683;48.084;17.272;2023-04-02T06:39:10;1.00;;;0.90;;
62610;SDS011;48683;48.084;17.272;2023-04-02T06:41:42;1.20;;;1.10;;
62610;SDS011;48683;48.084;17.272;2023-04-02T06:44:13;0.93;;;0.90;;
62610;SDS011;48683;48.084;17.272;2023-04-02T06:46:43;1.45;;;1.00;;
62610;SDS011;48683;48.084;17.272;2023-04-02T06:49:24;1.10;;;1.00;;
62610;SDS011;48683;48.084;17.272;2023-04-02T06:52:00;0.82;;;0.80;;
62610;SDS011;48683;48.084;17.272;2023-04-02T06:54:28;2.22;;;0.88;;
62610;SDS011;48683;48.084;17.272;2023-04-02T06:56:54;0.90;;;0.90;;
62610;SDS011;48683;48.084;17.272;2023-04-02T06:59:23;1.10;;;1.00;;
62610;SDS011;48683;48.084;17.272;2023-04-02T07:01:53;1.88;;;0.80;;
62610;SDS011;48683;48.084;17.272;2023-04-02T07:04:21;0.98;;;0.80;;
62610;SDS011;48683;48.084;17.272;2023-04-02T07:06:47;1.10;;;1.00;;
62610;SDS011;48683;48.084;17.272;2023-04-02T07:09:13;1.70;;;0.80;;
62610;SDS011;48683;48.084;17.272;2023-04-02T07:11:38;1.60;;;0.85;;
62610;SDS011;48683;48.084;17.272;2023-04-02T07:14:04;4.22;;;0.80;;
62610;SDS011;48683;48.084;17.272;2023-04-02T07:16:30;0.90;;;0.90;;
62610;SDS011;48683;48.084;17.272;2023-04-02T07:18:57;4.40;;;1.00;;
62610;SDS011;48683;48.084;17.272;2023-04-02T07:21:24;1.05;;;1.00;;
62610;SDS011;48683;48.084;17.272;2023-04-02T07:23:50;1.05;;;0.90;;
62610;SDS011;48683;48.084;17.272;2023-04-02T07:26:17;1.00;;;1.00;;
62610;SDS011;48683;48.084;17.272;2023-04-02T07:28:46;1.45;;;1.35;;
62610;SDS011;48683;48.084;17.272;2023-04-02T07:31:18;0.90;;;0.90;;
62610;SDS011;48683;48.084;17.272;2023-04-02T07:33:47;1.13;;;1.02;;
62610;SDS011;48683;48.084;17.272;2023-04-02T07:36:16;1.30;;;1.20;;
62610;SDS011;48683;48.084;17.272;2023-04-02T07:38:44;1.23;;;1.13;;
62610;SDS011;48683;48.084;17.272;2023-04-02T07:41:10;1.20;;;1.02;;
62610;SDS011;48683;48.084;17.272;2023-04-02T07:43:37;1.58;;;1.30;;
62610;SDS011;48683;48.084;17.272;2023-04-02T07:46:03;1.97;;;1.50;;
62610;SDS011;48683;48.084;17.272;2023-04-02T07:48:29;1.40;;;1.30;;
62610;SDS011;48683;48.084;17.272;2023-04-02T07:50:54;1.67;;;1.38;;
62610;SDS011;48683;48.084;17.272;2023-04-02T07:55:53;2.45;;;1.50;;
62610;SDS011;48683;48.084;17.272;2023-04-02T07:58:19;1.92;;;1.60;;
62610;SDS011;48683;48.084;17.272;2023-04-02T08:00:45;1.60;;;1.50;;
62610;SDS011;48683;48.084;17.272;2023-04-02T08:03:11;1.52;;;1.38;;
62610;SDS011;48683;48.084;17.272;2023-04-02T08:08:03;2.23;;;1.47;;
62610;SDS011;48683;48.084;17.272;2023-04-02T08:10:29;2.58;;;1.75;;
62610;SDS011;48683;48.084;17.272;2023-04-02T08:12:54;2.95;;;1.98;;
62610;SDS011;48683;48.084;17.272;2023-04-02T08:15:20;2.80;;;1.92;;
62610;SDS011;48683;48.084;17.272;2023-04-02T08:17:45;1.80;;;1.60;;
62610;SDS011;48683;48.084;17.272;2023-04-02T08:20:15;2.20;;;1.98;;
62610;SDS011;48683;48.084;17.272;2023-04-02T08:22:46;1.70;;;1.60;;
62610;SDS011;48683;48.084;17.272;2023-04-02T08:25:12;1.85;;;1.75;;
62610;SDS011;48683;48.084;17.272;2023-04-02T08:27:37;2.80;;;1.90;;
62610;SDS011;48683;48.084;17.272;2023-04-02T08:30:03;2.47;;;1.58;;
62610;SDS011;48683;48.084;17.272;2023-04-02T08:32:30;1.65;;;1.52;;
62610;SDS011;48683;48.084;17.272;2023-04-02T08:34:55;1.52;;;1.42;;
62610;SDS011;48683;48.084;17.272;2023-04-02T08:37:21;2.17;;;1.90;;
62610;SDS011;48683;48.084;17.272;2023-04-02T08:39:46;1.90;;;1.80;;
62610;SDS011;48683;48.084;17.272;2023-04-02T08:42:17;2.30;;;1.63;;
62610;SDS011;48683;48.084;17.272;2023-04-02T08:45:22;2.15;;;1.70;;
62610;SDS011;48683;48.084;17.272;2023-04-02T08:48:06;2.40;;;1.95;;
62610;SDS011;48683;48.084;17.272;2023-04-02T08:50:38;1.88;;;1.77;;
62610;SDS011;48683;48.084;17.272;2023-04-02T08:53:08;1.95;;;1.83;;
62610;SDS011;48683;48.084;17.272;2023-04-02T09:01:13;2.33;;;2.13;;
62610;SDS011;48683;48.084;17.272;2023-04-02T09:03:59;2.53;;;2.30;;
62610;SDS011;48683;48.084;17.272;2023-04-02T09:06:24;1.85;;;1.75;;
62610;SDS011;48683;48.084;17.272;2023-04-02T09:08:52;2.00;;;1.83;;
62610;SDS011;48683;48.084;17.272;2023-04-02T09:13:54;1.90;;;1.73;;
62610;SDS011;48683;48.084;17.272;2023-04-02T09:16:25;2.35;;;2.03;;
62610;SDS011;48683;48.084;17.272;2023-04-02T09:19:21;2.30;;;2.08;;
62610;SDS011;48683;48.084;17.272;2023-04-02T09:21:58;3.35;;;2.15;;
62610;SDS011;48683;48.084;17.272;2023-04-02T09:24:30;2.28;;;2.08;;
62610;SDS011;48683;48.084;17.272;2023-04-02T09:26:56;2.58;;;2.10;;
62610;SDS011;48683;48.084;17.272;2023-04-02T09:40:45;2.55;;;1.92;;
62610;SDS011;48683;48.084;17.272;2023-04-02T09:45:38;2.00;;;1.80;;
62610;SDS011;48683;48.084;17.272;2023-04-02T09:48:16;2.65;;;1.80;;
62610;SDS011;48683;48.084;17.272;2023-04-02T09:50:48;3.17;;;1.73;;
62610;SDS011;48683;48.084;17.272;2023-04-02T09:53:29;2.17;;;1.70;;
62610;SDS011;48683;48.084;17.272;2023-04-02T09:56:06;2.53;;;1.63;;
62610;SDS011;48683;48.084;17.272;2023-04-02T09:58:32;1.60;;;1.50;;
62610;SDS011;48683;48.084;17.272;2023-04-02T10:00:58;1.60;;;1.50;;
62610;SDS011;48683;48.084;17.272;2023-04-02T10:03:25;1.45;;;1.35;;
62610;SDS011;48683;48.084;17.272;2023-04-02T10:06:05;1.65;;;1.40;;
62610;SDS011;48683;48.084;17.272;2023-04-02T10:08:33;1.42;;;1.33;;
62610;SDS011;48683;48.084;17.272;2023-04-02T10:11:01;1.30;;;1.30;;
62610;SDS011;48683;48.084;17.272;2023-04-02T10:18:57;1.40;;;1.20;;
62610;SDS011;48683;48.084;17.272;2023-04-02T10:21:37;1.10;;;1.10;;
62610;SDS011;48683;48.084;17.272;2023-04-02T10:24:11;2.15;;;1.50;;
62610;SDS011;48683;48.084;17.272;2023-04-02T10:26:50;2.00;;;1.30;;
62610;SDS011;48683;48.084;17.272;2023-04-02T10:29:34;1.55;;;1.40;;
62610;SDS011;48683;48.084;17.272;2023-04-02T10:34:57;1.40;;;1.30;;
62610;SDS011;48683;48.084;17.272;2023-04-02T10:43:29;1.55;;;1.33;;
62610;SDS011;48683;48.084;17.272;2023-04-02T10:48:44;1.25;;;1.20;;
62610;SDS011;48683;48.084;17.272;2023-04-02T10:56:47;1.60;;;1.50;;
62610;SDS011;48683;48.084;17.272;2023-04-02T10:59:17;3.30;;;1.50;;
62610;SDS011;48683;48.084;17.272;2023-04-02T11:01:46;3.40;;;1.92;;
62610;SDS011;48683;48.084;17.272;2023-04-02T11:06:48;1.85;;;1.60;;
62610;SDS011;48683;48.084;17.272;2023-04-02T11:09:19;2.15;;;2.05;;
62610;SDS011;48683;48.084;17.272;2023-04-02T11:11:49;2.03;;;1.60;;
62610;SDS011;48683;48.084;17.272;2023-04-02T11:16:52;2.10;;;2.00;;
62610;SDS011;48683;48.084;17.272;2023-04-02T11:21:46;2.17;;;1.65;;
62610;SDS011;48683;48.084;17.272;2023-04-02T11:24:22;1.90;;;1.80;;
62610;SDS011;48683;48.084;17.272;2023-04-02T11:26:48;2.08;;;1.98;;
62610;SDS011;48683;48.084;17.272;2023-04-02T11:32:13;4.63;;;2.27;;
62610;SDS011;48683;48.084;17.272;2023-04-02T11:37:07;2.40;;;1.85;;
62610;SDS011;48683;48.084;17.272;2023-04-02T11:39:44;1.35;;;1.25;;
62610;SDS011;48683;48.084;17.272;2023-04-02T11:44:42;2.97;;;2.10;;
62610;SDS011;48683;48.084;17.272;2023-04-02T11:49:55;2.17;;;1.98;;
62610;SDS011;48683;48.084;17.272;2023-04-02T11:52:28;2.40;;;2.20;;
62610;SDS011;48683;48.084;17.272;2023-04-02T11:55:02;2.35;;;2.15;;
62610;SDS011;48683;48.084;17.272;2023-04-02T12:00:47;2.10;;;1.90;;
62610;SDS011;48683;48.084;17.272;2023-04-02T12:11:42;2.47;;;1.70;;
62610;SDS011;48683;48.084;17.272;2023-04-02T12:17:14;1.92;;;1.50;;
62610;SDS011;48683;48.084;17.272;2023-04-02T12:19:52;2.42;;;1.10;;
62610;SDS011;48683;48.084;17.272;2023-04-02T12:22:27;1.60;;;1.30;;
62610;SDS011;48683;48.084;17.272;2023-04-02T12:24:58;4.03;;;1.80;;
62610;SDS011;48683;48.084;17.272;2023-04-02T12:27:26;3.78;;;2.10;;
62610;SDS011;48683;48.084;17.272;2023-04-02T12:29:54;1.67;;;1.52;;
62610;SDS011;48683;48.084;17.272;2023-04-02T12:34:51;3.13;;;2.30;;
62610;SDS011;48683;48.084;17.272;2023-04-02T12:37:19;2.33;;;2.13;;
62610;SDS011;48683;48.084;17.272;2023-04-02T12:39:55;4.43;;;2.78;;
62610;SDS011;48683;48.084;17.272;2023-04-02T12:42:32;3.25;;;2.92;;
62610;SDS011;48683;48.084;17.272;2023-04-02T12:44:59;2.92;;;2.70;;
62610;SDS011;48683;48.084;17.272;2023-04-02T12:47:25;5.45;;;2.60;;
62610;SDS011;48683;48.084;17.272;2023-04-02T12:49:51;3.05;;;2.67;;
62610;SDS011;48683;48.084;17.272;2023-04-02T12:52:20;3.50;;;2.80;;
62610;SDS011;48683;48.084;17.272;2023-04-02T12:54:52;3.10;;;2.50;;
62610;SDS011;48683;48.084;17.272;2023-04-02T12:57:39;2.78;;;2.58;;
62610;SDS011;48683;48.084;17.272;2023-04-02T13:02:45;3.22;;;2.92;;
62610;SDS011;48683;48.084;17.272;2023-04-02T13:07:59;2.45;;;2.25;;
62610;SDS011;48683;48.084;17.272;2023-04-02T13:10:26;2.50;;;2.30;;
62610;SDS011;48683;48.084;17.272;2023-04-02T13:13:12;1.90;;;1.80;;
62610;SDS011;48683;48.084;17.272;2023-04-02T13:15:41;2.10;;;2.00;;
62610;SDS011;48683;48.084;17.272;2023-04-02T13:18:20;2.15;;;1.95;;
62610;SDS011;48683;48.084;17.272;2023-04-02T13:23:38;3.72;;;2.70;;
62610;SDS011;48683;48.084;17.272;2023-04-02T13:29:34;3.88;;;3.35;;
62610;SDS011;48683;48.084;17.272;2023-04-02T13:31:47;3.30;;;3.10;;
62610;SDS011;48683;48.084;17.272;2023-04-02T13:34:14;3.58;;;3.28;;
62610;SDS011;48683;48.084;17.272;2023-04-02T13:36:39;3.30;;;3.00;;
62610;SDS011;48683;48.084;17.272;2023-04-02T13:39:05;2.75;;;2.55;;
62610;SDS011;48683;48.084;17.272;2023-04-02T13:41:35;2.92;;;2.72;;
62610;SDS011;48683;48.084;17.272;2023-04-02T13:44:04;2.85;;;2.65;;
62610;SDS011;48683;48.084;17.272;2023-04-02T13:46:31;2.55;;;2.35;;
62610;SDS011;48683;48.084;17.272;2023-04-02T13:48:58;2.20;;;2.00;;
62610;SDS011;48683;48.084;17.272;2023-04-02T13:53:59;2.95;;;1.88;;
62610;SDS011;48683;48.084;17.272;2023-04-02T13:56:25;1.90;;;1.80;;
62610;SDS011;48683;48.084;17.272;2023-04-02T13:58:51;1.65;;;1.55;;
62610;SDS011;48683;48.084;17.272;2023-04-02T14:01:19;2.58;;;2.38;;
62610;SDS011;48683;48.084;17.272;2023-04-02T14:03:47;2.53;;;2.33;;
62610;SDS011;48683;48.084;17.272;2023-04-02T14:12:03;2.50;;;2.30;;
62610;SDS011;48683;48.084;17.272;2023-04-02T14:19:30;2.92;;;2.70;;
62610;SDS011;48683;48.084;17.272;2023-04-02T14:24:59;3.20;;;3.00;;
62610;SDS011;48683;48.084;17.272;2023-04-02T14:30:51;2.83;;;2.63;;
62610;SDS011;48683;48.084;17.272;2023-04-02T14:35:57;2.80;;;2.60;;
62610;SDS011;48683;48.084;17.272;2023-04-02T14:38:36;2.95;;;2.65;;
62610;SDS011;48683;48.084;17.272;2023-04-02T14:44:35;4.47;;;3.10;;
62610;SDS011;48683;48.084;17.272;2023-04-02T14:47:12;3.72;;;3.20;;
62610;SDS011;48683;48.084;17.272;2023-04-02T14:49:42;4.00;;;3.63;;
62610;SDS011;48683;48.084;17.272;2023-04-02T14:52:15;3.53;;;3.22;;
62610;SDS011;48683;48.084;17.272;2023-04-02T15:02:57;3.65;;;3.35;;
62610;SDS011;48683;48.084;17.272;2023-04-02T15:05:36;4.88;;;4.00;;
62610;SDS011;48683;48.084;17.272;2023-04-02T15:08:05;4.03;;;3.70;;
62610;SDS011;48683;48.084;17.272;2023-04-02T15:13:30;3.70;;;3.40;;
62610;SDS011;48683;48.084;17.272;2023-04-02T15:16:13;3.45;;;3.15;;
62610;SDS011;48683;48.084;17.272;2023-04-02T15:18:43;4.05;;;3.42;;
62610;SDS011;48683;48.084;17.272;2023-04-02T15:24:18;2.95;;;2.75;;
62610;SDS011;48683;48.084;17.272;2023-04-02T15:32:44;3.65;;;3.20;;
62610;SDS011;48683;48.084;17.272;2023-04-02T15:43:37;3.60;;;3.30;;
62610;SDS011;48683;48.084;17.272;2023-04-02T15:46:06;3.83;;;3.50;;
62610;SDS011;48683;48.084;17.272;2023-04-02T15:56:47;8.00;;;3.75;;
62610;SDS011;48683;48.084;17.272;2023-04-02T16:02:11;3.95;;;3.00;;
62610;SDS011;48683;48.084;17.272;2023-04-02T16:04:55;3.97;;;3.53;;
62610;SDS011;48683;48.084;17.272;2023-04-02T16:07:52;3.80;;;3.50;;
62610;SDS011;48683;48.084;17.272;2023-04-02T16:10:35;5.07;;;3.60;;
62610;SDS011;48683;48.084;17.272;2023-04-02T16:13:11;4.07;;;3.35;;
62610;SDS011;48683;48.084;17.272;2023-04-02T16:15:50;4.32;;;3.83;;
62610;SDS011;48683;48.084;17.272;2023-04-02T16:18:42;5.15;;;3.33;;
62610;SDS011;48683;48.084;17.272;2023-04-02T16:21:33;3.13;;;2.70;;
62610;SDS011;48683;48.084;17.272;2023-04-02T16:24:10;3.40;;;3.10;;
62610;SDS011;48683;48.084;17.272;2023-04-02T16:32:04;3.80;;;3.00;;
62610;SDS011;48683;48.084;17.272;2023-04-02T16:34:50;3.80;;;2.80;;
62610;SDS011;48683;48.084;17.272;2023-04-02T16:37:50;3.65;;;3.05;;
62610;SDS011;48683;48.084;17.272;2023-04-02T16:40:38;3.55;;;2.97;;
62610;SDS011;48683;48.084;17.272;2023-04-02T16:49:05;3.30;;;3.00;;
62610;SDS011;48683;48.084;17.272;2023-04-02T16:51:39;3.90;;;2.90;;
62610;SDS011;48683;48.084;17.272;2023-04-02T16:54:21;5.40;;;3.80;;
62610;SDS011;48683;48.084;17.272;2023-04-02T17:00:23;3.58;;;3.17;;
62610;SDS011;48683;48.084;17.272;2023-04-02T17:06:05;4.57;;;3.50;;
62610;SDS011;48683;48.084;17.272;2023-04-02T17:08:42;3.20;;;2.90;;
62610;SDS011;48683;48.084;17.272;2023-04-02T17:11:29;4.15;;;3.20;;
62610;SDS011;48683;48.084;17.272;2023-04-02T17:14:05;7.25;;;3.30;;
62610;SDS011;48683;48.084;17.272;2023-04-02T17:16:46;3.83;;;3.38;;
62610;SDS011;48683;48.084;17.272;2023-04-02T17:19:15;3.97;;;3.38;;
62610;SDS011;48683;48.084;17.272;2023-04-02T17:21:45;4.53;;;3.58;;
62610;SDS011;48683;48.084;17.272;2023-04-02T17:26:38;3.78;;;3.25;;
62610;SDS011;48683;48.084;17.272;2023-04-02T17:29:08;3.95;;;3.40;;
62610;SDS011;48683;48.084;17.272;2023-04-02T17:32:00;4.78;;;3.70;;
62610;SDS011;48683;48.084;17.272;2023-04-02T17:39:35;3.60;;;3.22;;
62610;SDS011;48683;48.084;17.272;2023-04-02T17:42:36;3.72;;;3.33;;
62610;SDS011;48683;48.084;17.272;2023-04-02T17:48:32;3.40;;;3.10;;
62610;SDS011;48683;48.084;17.272;2023-04-02T17:50:52;4.40;;;3.70;;
62610;SDS011;48683;48.084;17.272;2023-04-02T17:53:29;4.43;;;3.67;;
62610;SDS011;48683;48.084;17.272;2023-04-02T17:59:13;5.20;;;3.55;;
62610;SDS011;48683;48.084;17.272;2023-04-02T18:04:32;4.47;;;3.38;;
62610;SDS011;48683;48.084;17.272;2023-04-02T18:07:23;3.80;;;3.40;;
62610;SDS011;48683;48.084;17.272;2023-04-02T18:23:42;3.65;;;3.30;;
62610;SDS011;48683;48.084;17.272;2023-04-02T18:29:10;5.50;;;3.88;;
62610;SDS011;48683;48.084;17.272;2023-04-02T18:32:14;6.95;;;4.28;;
62610;SDS011;48683;48.084;17.272;2023-04-02T18:48:51;5.07;;;3.70;;
62610;SDS011;48683;48.084;17.272;2023-04-02T18:51:22;4.63;;;3.60;;
62610;SDS011;48683;48.084;17.272;2023-04-02T18:53:49;5.00;;;4.25;;
62610;SDS011;48683;48.084;17.272;2023-04-02T18:56:20;5.25;;;4.30;;
62610;SDS011;48683;48.084;17.272;2023-04-02T19:01:35;4.60;;;4.20;;
62610;SDS011;48683;48.084;17.272;2023-04-02T19:04:05;5.28;;;3.70;;
62610;SDS011;48683;48.084;17.272;2023-04-02T19:06:36;6.40;;;3.80;;
62610;SDS011;48683;48.084;17.272;2023-04-02T19:09:10;4.47;;;4.03;;
62610;SDS011;48683;48.084;17.272;2023-04-02T19:11:40;5.97;;;4.30;;
62610;SDS011;48683;48.084;17.272;2023-04-02T19:14:10;5.35;;;4.38;;
62610;SDS011;48683;48.084;17.272;2023-04-02T19:19:27;5.18;;;4.47;;
62610;SDS011;48683;48.084;17.272;2023-04-02T19:24:57;5.32;;;4.53;;
62610;SDS011;48683;48.084;17.272;2023-04-02T19:27:33;5.70;;;4.57;;
62610;SDS011;48683;48.084;17.272;2023-04-02T19:35:52;4.57;;;3.70;;
62610;SDS011;48683;48.084;17.272;2023-04-02T19:43:57;3.63;;;3.20;;
62610;SDS011;48683;48.084;17.272;2023-04-02T19:46:23;4.18;;;3.78;;
62610;SDS011;48683;48.084;17.272;2023-04-02T19:51:22;3.95;;;3.55;;
62610;SDS011;48683;48.084;17.272;2023-04-02T19:53:48;4.77;;;3.70;;
62610;SDS011;48683;48.084;17.272;2023-04-02T19:56:13;5.82;;;4.00;;
62610;SDS011;48683;48.084;17.272;2023-04-02T19:58:38;5.00;;;3.97;;
62610;SDS011;48683;48.084;17.272;2023-04-02T20:01:04;4.75;;;3.75;;
62610;SDS011;48683;48.084;17.272;2023-04-02T20:03:29;5.22;;;3.90;;
62610;SDS011;48683;48.084;17.272;2023-04-02T20:05:55;3.88;;;3.33;;
62610;SDS011;48683;48.084;17.272;2023-04-02T20:08:23;5.70;;;3.75;;
62610;SDS011;48683;48.084;17.272;2023-04-02T20:10:49;4.32;;;3.70;;
62610;SDS011;48683;48.084;17.272;2023-04-02T20:13:14;4.15;;;3.75;;
62610;SDS011;48683;48.084;17.272;2023-04-02T20:15:40;4.38;;;3.75;;
62610;SDS011;48683;48.084;17.272;2023-04-02T20:18:06;4.07;;;3.67;;
62610;SDS011;48683;48.084;17.272;2023-04-02T20:20:32;4.80;;;4.00;;
62610;SDS011;48683;48.084;17.272;2023-04-02T20:22:57;4.80;;;3.40;;
62610;SDS011;48683;48.084;17.272;2023-04-02T20:25:22;4.43;;;3.85;;
62610;SDS011;48683;48.084;17.272;2023-04-02T20:27:48;4.10;;;3.58;;
62610;SDS011;48683;48.084;17.272;2023-04-02T20:30:13;4.18;;;3.67;;
62610;SDS011;48683;48.084;17.272;2023-04-02T20:32:38;4.05;;;3.53;;
62610;SDS011;48683;48.084;17.272;2023-04-02T20:35:04;3.97;;;3.45;;
62610;SDS011;48683;48.084;17.272;2023-04-02T20:37:30;3.60;;;3.25;;
62610;SDS011;48683;48.084;17.272;2023-04-02T20:39:57;5.07;;;3.20;;
62610;SDS011;48683;48.084;17.272;2023-04-02T20:42:23;3.92;;;3.53;;
62610;SDS011;48683;48.084;17.272;2023-04-02T20:44:49;5.70;;;4.05;;
62610;SDS011;48683;48.084;17.272;2023-04-02T20:47:14;3.72;;;3.38;;